Time;durP1;ratioP1;P1;durP2;ratioP2;P2;SDS_P1;SDS_P2;PMS_P1;PMS_P2;Temp;Humidity;BMP_temperature;BMP_pressure;BME280_temperature;BME280_humidity;BME280_pressure;Samples;Min_cycle;Max_cycle;Signal;HPM_P1;HPM_P2
2022/08/31 00:04:52;;;;;;;26.53;9.67;;;;;;;-143.84;92.40;45045.25;5040295;28;20550;-80
2022/08/31 00:07:20;;;;;;;32.57;9.70;;;;;;;-143.84;92.56;45039.53;5036270;28;20539;-80
2022/08/31 00:09:48;;;;;;;30.93;10.70;;;;;;;-143.84;92.60;45045.25;5038247;28;20453;-80
2022/08/31 00:12:16;;;;;;;42.43;10.63;;;;;;;-143.84;92.83;45043.34;5041523;28;20566;-80
2022/08/31 00:14:43;;;;;;;25.73;11.20;;;;;;;-143.84;93.09;45064.31;5042766;28;20519;-80
2022/08/31 00:17:10;;;;;;;39.17;12.90;;;;;;;-143.84;93.17;45068.13;5048034;28;20453;-80
2022/08/31 00:19:38;;;;;;;31.27;10.40;;;;;;;-143.84;93.36;45045.25;5043381;28;21279;-80
2022/08/31 00:22:05;;;;;;;32.07;11.60;;;;;;;-143.84;93.59;45052.88;5041342;28;20435;-80
2022/08/31 00:24:32;;;;;;;31.80;10.43;;;;;;;-143.84;93.55;45037.66;5034122;28;20861;-80
2022/08/31 00:27:01;;;;;;;22.67;10.07;;;;;;;-143.84;93.68;45047.16;5035373;28;20483;-80
2022/08/31 00:29:29;;;;;;;60.40;10.80;;;;;;;-143.84;93.88;45070.00;5041380;28;20457;-80
2022/08/31 00:31:56;;;;;;;37.17;11.17;;;;;;;-143.84;94.08;45066.22;5043438;28;20441;-80
2022/08/31 00:34:25;;;;;;;54.80;11.70;;;;;;;-143.84;94.37;45066.22;5040319;28;20795;-80
2022/08/31 00:36:53;;;;;;;33.73;12.20;;;;;;;-143.84;94.50;45052.88;5033530;28;20506;-81
2022/08/31 00:39:20;;;;;;;43.00;13.80;;;;;;;-143.84;94.67;45081.44;5044739;28;20481;-81
2022/08/31 00:41:47;;;;;;;29.70;13.27;;;;;;;-143.84;94.83;45043.34;5043447;28;20452;-80
2022/08/31 00:44:16;;;;;;;31.23;12.43;;;;;;;-143.84;95.00;45062.41;5035533;28;20797;-80
2022/08/31 00:46:44;;;;;;;34.97;12.80;;;;;;;-143.84;95.16;45071.91;5043352;28;20489;-80
2022/08/31 00:49:15;;;;;;;37.20;11.93;;;;;;;-143.84;95.26;45081.44;5039566;28;20995;-80
2022/08/31 00:51:47;;;;;;;32.90;13.50;;;;;;;-143.84;95.48;45058.59;5040697;28;20516;-80
2022/08/31 00:54:20;;;;;;;29.23;13.43;;;;;;;-143.84;95.62;45054.78;5044711;28;20485;-80
2022/08/31 00:56:47;;;;;;;31.13;12.70;;;;;;;-143.84;96.04;45049.06;5038966;28;20967;-80
2022/08/31 00:59:18;;;;;;;27.67;12.80;;;;;;;-143.84;96.06;45066.22;5044185;28;20520;-80
2022/08/31 01:01:45;;;;;;;39.67;11.47;;;;;;;-143.84;95.93;45054.78;5033276;28;20465;-80
2022/08/31 01:04:12;;;;;;;35.27;11.60;;;;;;;-143.84;96.01;45054.78;5038742;28;20504;-80
2022/08/31 01:06:41;;;;;;;28.40;11.40;;;;;;;-143.84;95.91;45064.31;5037000;28;20478;-80
2022/08/31 01:09:11;;;;;;;29.83;12.03;;;;;;;-143.84;95.70;45068.13;5038313;28;20466;-80
2022/08/31 01:11:39;;;;;;;30.20;12.00;;;;;;;-143.84;95.33;45077.63;5036159;28;20449;-80
2022/08/31 01:14:08;;;;;;;25.60;10.33;;;;;;;-143.84;94.90;45043.34;5051522;28;20508;-80
2022/08/31 01:16:39;;;;;;;30.60;11.53;;;;;;;-143.84;94.65;45064.31;5041129;28;20441;-81
2022/08/31 01:19:17;;;;;;;40.20;11.37;;;;;;;-143.84;94.87;45068.13;5044129;28;20955;-81
2022/08/31 01:21:53;;;;;;;30.90;10.37;;;;;;;-143.84;94.90;45049.06;5039628;28;20442;-81
2022/08/31 01:24:25;;;;;;;24.00;10.63;;;;;;;-143.84;94.76;45049.06;5040132;28;20944;-80
2022/08/31 01:26:53;;;;;;;37.60;11.40;;;;;;;-143.84;94.85;45050.97;5040602;28;20490;-81
2022/08/31 01:29:21;;;;;;;32.33;11.93;;;;;;;-143.84;94.76;45049.06;5039734;28;20457;-81
2022/08/31 01:31:48;;;;;;;18.80;10.00;;;;;;;-143.84;94.73;45060.50;5040744;28;20579;-81
2022/08/31 01:34:15;;;;;;;27.47;9.97;;;;;;;-143.84;94.62;45098.56;5041118;28;20453;-80
2022/08/31 01:36:46;;;;;;;39.07;11.50;;;;;;;-143.84;94.54;45077.63;5051492;28;20947;-81
2022/08/31 01:39:14;;;;;;;27.93;10.47;;;;;;;-143.84;94.62;45041.44;5049283;28;20504;-80
2022/08/31 01:41:43;;;;;;;31.13;10.70;;;;;;;-143.84;94.56;45075.72;5047155;28;20445;-80
2022/08/31 01:44:11;;;;;;;22.30;10.70;;;;;;;-143.84;94.45;45054.78;5044400;28;20455;-80
2022/08/31 01:46:39;;;;;;;28.73;11.30;;;;;;;-143.84;94.08;45060.50;5021969;28;20517;-80
2022/08/31 01:49:06;;;;;;;26.53;10.30;;;;;;;-143.84;94.02;45047.16;5041927;28;20846;-80
2022/08/31 01:51:34;;;;;;;28.70;10.70;;;;;;;-143.84;93.79;45090.97;5036752;28;20450;-81
2022/08/31 01:54:02;;;;;;;42.90;10.50;;;;;;;-143.84;93.59;45075.72;5037065;28;20493;-81
2022/08/31 01:56:31;;;;;;;37.47;10.40;;;;;;;-143.84;93.60;45075.72;5036731;28;20515;-80
2022/08/31 01:59:00;;;;;;;24.90;9.80;;;;;;;-143.84;93.37;45073.81;5045002;28;20458;-80
2022/08/31 02:01:31;;;;;;;32.53;11.00;;;;;;;-143.84;92.88;45075.72;5042045;28;20445;-81
2022/08/31 02:03:58;;;;;;;36.70;9.87;;;;;;;-143.84;92.50;45079.53;5043125;28;20951;-80
2022/08/31 02:06:26;;;;;;;40.17;10.70;;;;;;;-143.84;92.14;45064.31;5037311;28;20995;-80
2022/08/31 02:08:53;;;;;;;30.13;10.53;;;;;;;-143.84;92.00;45090.97;5043999;28;20511;-80
2022/08/31 02:11:20;;;;;;;33.23;10.17;;;;;;;-143.84;92.23;45087.16;5042141;28;20472;-80
2022/08/31 02:13:47;;;;;;;39.53;11.13;;;;;;;-143.84;92.16;45041.44;5041499;28;20446;-80
2022/08/31 02:16:16;;;;;;;50.60;11.63;;;;;;;-143.84;91.97;45054.78;5044283;28;20454;-81
2022/08/31 02:18:43;;;;;;;29.47;9.80;;;;;;;-143.84;91.83;45056.69;5045513;28;20462;-81
2022/08/31 02:21:12;;;;;;;26.33;9.73;;;;;;;-143.84;91.57;45068.13;5036606;28;20449;-81
2022/08/31 02:23:39;;;;;;;44.83;9.97;;;;;;;-143.84;91.29;45085.25;5039601;28;20515;-81
2022/08/31 02:26:07;;;;;;;20.87;9.23;;;;;;;-143.84;91.06;45094.78;5039682;28;20504;-81
2022/08/31 02:28:34;;;;;;;31.80;10.00;;;;;;;-143.84;90.65;45062.41;5042924;28;20449;-80
2022/08/31 02:31:01;;;;;;;26.97;9.17;;;;;;;-143.84;89.95;45110.00;5040551;28;20450;-80
2022/08/31 02:33:30;;;;;;;18.90;9.37;;;;;;;-143.84;89.84;45092.88;5034136;28;20453;-81
2022/08/31 02:35:57;;;;;;;24.83;8.30;;;;;;;-143.84;90.04;45079.53;5035473;28;20458;-80
2022/08/31 02:38:24;;;;;;;24.70;8.17;;;;;;;-143.84;89.58;45075.72;5043426;28;20445;-80
2022/08/31 02:40:52;;;;;;;39.53;9.10;;;;;;;-143.84;89.16;45106.19;5040292;28;20453;-80
2022/08/31 02:43:19;;;;;;;24.93;9.00;;;;;;;-143.84;89.32;45085.25;5031768;28;20463;-80
2022/08/31 02:45:47;;;;;;;26.87;9.90;;;;;;;-143.84;89.36;45062.41;5031056;28;20439;-80
2022/08/31 02:48:14;;;;;;;41.47;8.97;;;;;;;-143.84;88.69;45062.41;5030946;28;20482;-80
2022/08/31 02:50:46;;;;;;;20.27;8.33;;;;;;;-143.84;88.60;45071.91;5042424;28;20451;-81
2022/08/31 02:53:15;;;;;;;32.37;8.50;;;;;;;-143.84;88.29;45098.56;5041203;28;20497;-81
2022/08/31 02:55:43;;;;;;;26.33;8.60;;;;;;;-143.84;87.44;45064.31;5032538;28;20454;-80
2022/08/31 02:58:12;;;;;;;27.60;6.73;;;;;;;-143.84;86.31;45104.28;5040260;28;20509;-81
2022/08/31 03:00:39;;;;;;;25.13;7.80;;;;;;;-143.84;85.06;45060.50;5043967;28;20437;-79
2022/08/31 03:03:07;;;;;;;22.60;7.27;;;;;;;-143.84;84.55;45037.66;5048075;28;20453;-80
2022/08/31 03:05:34;;;;;;;32.27;7.50;;;;;;;-143.84;83.69;45064.31;5047160;28;20495;-80
2022/08/31 03:08:03;;;;;;;16.10;6.50;;;;;;;-143.84;83.58;45092.88;5043797;28;20482;-79
2022/08/31 03:10:31;;;;;;;21.07;6.87;;;;;;;-143.84;83.43;45064.31;5036417;28;20457;-79
2022/08/31 03:12:58;;;;;;;25.53;7.80;;;;;;;-143.84;84.38;45089.06;5036950;28;20510;-80
2022/08/31 03:15:26;;;;;;;18.87;7.07;;;;;;;-143.84;85.35;45075.72;5039250;28;20441;-80
2022/08/31 03:17:53;;;;;;;13.10;6.90;;;;;;;-143.84;86.27;45081.44;5037568;28;20455;-80
2022/08/31 03:20:24;;;;;;;16.77;7.67;;;;;;;-143.84;86.76;45092.88;5045378;28;20500;-80
2022/08/31 03:22:51;;;;;;;29.87;8.00;;;;;;;-143.84;86.86;45087.16;5045319;28;20834;-79
2022/08/31 03:25:20;;;;;;;12.60;6.83;;;;;;;-143.84;86.41;45066.22;5046475;28;20458;-79
2022/08/31 03:27:48;;;;;;;29.27;7.27;;;;;;;-143.84;85.95;45077.63;5034964;28;21015;-82
2022/08/31 03:30:18;;;;;;;15.00;7.10;;;;;;;-143.84;85.60;45073.81;5044515;28;20443;-80
2022/08/31 03:32:47;;;;;;;26.20;7.73;;;;;;;-143.84;85.40;45064.31;5044144;28;20446;-78
2022/08/31 03:35:16;;;;;;;27.03;7.10;;;;;;;-143.84;85.43;45102.38;5036795;28;20447;-79
2022/08/31 03:37:44;;;;;;;12.23;7.13;;;;;;;-143.84;85.72;45087.16;5042272;28;20522;-80
2022/08/31 03:40:11;;;;;;;21.83;6.90;;;;;;;-143.84;85.51;45102.38;5037821;28;20453;-80
2022/08/31 03:42:40;;;;;;;19.43;6.83;;;;;;;-143.84;84.86;45052.88;5040589;28;20451;-80
2022/08/31 03:45:08;;;;;;;21.73;6.10;;;;;;;-143.84;84.89;45073.81;5033314;28;20777;-80
2022/08/31 03:47:36;;;;;;;19.20;7.53;;;;;;;-143.84;84.95;45062.41;5043623;28;20996;-82
2022/08/31 03:50:06;;;;;;;27.63;6.90;;;;;;;-143.84;85.06;45073.81;5034094;28;20880;-80
2022/08/31 03:52:34;;;;;;;28.00;6.83;;;;;;;-143.84;85.34;45104.28;5036850;28;20483;-80
2022/08/31 03:55:01;;;;;;;14.40;6.37;;;;;;;-143.84;85.03;45077.63;5054112;28;20487;-80
2022/08/31 03:57:29;;;;;;;17.77;6.67;;;;;;;-143.84;84.97;45068.13;5050439;28;20446;-81
2022/08/31 03:59:59;;;;;;;17.80;6.57;;;;;;;-143.84;85.21;45070.00;5044753;28;20442;-80
2022/08/31 04:02:27;;;;;;;19.10;6.60;;;;;;;-143.84;85.17;45075.72;5037221;28;20516;-80
2022/08/31 04:04:54;;;;;;;20.87;6.60;;;;;;;-143.84;85.06;45081.44;5045903;28;20464;-80
2022/08/31 04:07:22;;;;;;;16.00;7.00;;;;;;;-143.84;85.30;45045.25;5038102;28;20477;-80
2022/08/31 04:09:50;;;;;;;25.57;7.60;;;;;;;-143.84;85.37;45073.81;5038619;28;21171;-80
2022/08/31 04:12:19;;;;;;;11.30;7.27;;;;;;;-143.84;85.29;45050.97;5033634;28;20513;-81
2022/08/31 04:14:46;;;;;;;24.13;6.83;;;;;;;-143.84;85.57;45071.91;5036932;28;20450;-80
2022/08/31 04:17:15;;;;;;;25.03;7.30;;;;;;;-143.84;86.26;45075.72;5034440;28;20489;-80
2022/08/31 04:19:42;;;;;;;23.50;8.23;;;;;;;-143.84;86.69;45064.31;5051172;28;20442;-80
2022/08/31 04:22:09;;;;;;;15.60;8.07;;;;;;;-143.84;87.36;45079.53;5044680;28;20446;-81
2022/08/31 04:24:36;;;;;;;27.23;7.63;;;;;;;-143.84;87.25;45071.91;5045208;28;20425;-80
2022/08/31 04:27:04;;;;;;;20.43;6.90;;;;;;;-143.84;87.28;45085.25;5053582;28;20481;-80
2022/08/31 04:29:32;;;;;;;26.77;7.10;;;;;;;-143.84;87.42;45071.91;5053407;28;20438;-80
2022/08/31 04:31:59;;;;;;;31.07;7.97;;;;;;;-143.84;87.50;45090.97;5053581;28;20421;-80
2022/08/31 04:34:27;;;;;;;19.47;6.57;;;;;;;-143.84;86.99;45068.13;5053366;28;20480;-80
2022/08/31 04:36:55;;;;;;;18.07;7.20;;;;;;;-143.84;86.20;45087.16;5053720;28;20955;-80
2022/08/31 04:39:22;;;;;;;30.90;6.87;;;;;;;-143.84;85.34;45075.72;5050611;28;20446;-81
2022/08/31 04:41:49;;;;;;;18.67;6.03;;;;;;;-143.84;85.11;45071.91;5043231;28;20984;-80
2022/08/31 04:44:16;;;;;;;18.93;6.67;;;;;;;-143.84;84.83;45054.78;5039236;28;20450;-80
2022/08/31 04:46:44;;;;;;;10.97;6.00;;;;;;;-143.84;84.61;45073.81;5038060;28;20501;-81
2022/08/31 04:49:14;;;;;;;25.00;7.00;;;;;;;-143.84;84.60;45094.78;5036798;28;21059;-80
2022/08/31 04:51:43;;;;;;;13.93;6.97;;;;;;;-143.84;84.47;45104.28;5038969;28;20449;-80
2022/08/31 04:54:13;;;;;;;29.30;7.30;;;;;;;-143.84;84.77;45068.13;5041776;28;20494;-81
2022/08/31 04:56:45;;;;;;;22.07;6.87;;;;;;;-143.84;84.61;45089.06;5039949;28;20455;-80
2022/08/31 04:59:14;;;;;;;27.37;6.70;;;;;;;-143.84;84.75;45073.81;5041268;28;20455;-80
2022/08/31 05:01:44;;;;;;;22.77;7.67;;;;;;;-143.84;84.49;45083.34;5041964;28;20503;-80
2022/08/31 05:04:13;;;;;;;34.27;7.30;;;;;;;-143.84;84.16;45068.13;5043790;28;20529;-80
2022/08/31 05:06:43;;;;;;;22.60;5.77;;;;;;;-143.84;83.45;45090.97;5046288;28;20509;-80
2022/08/31 05:09:13;;;;;;;25.60;6.70;;;;;;;-143.84;82.97;45075.72;5020822;28;20471;-80
2022/08/31 05:11:41;;;;;;;23.07;7.60;;;;;;;-143.84;82.52;45090.97;5045423;28;20442;-80
2022/08/31 05:14:09;;;;;;;22.13;6.00;;;;;;;-143.84;82.04;45071.91;5040918;28;20442;-80
2022/08/31 05:16:39;;;;;;;24.20;6.70;;;;;;;-143.84;81.41;45071.91;5045186;28;20442;-80
2022/08/31 05:19:07;;;;;;;27.20;7.40;;;;;;;-143.84;81.16;45077.63;5034314;28;21173;-81
2022/08/31 05:21:36;;;;;;;34.27;7.40;;;;;;;-143.84;79.86;45085.25;5044965;28;20512;-80
2022/08/31 05:24:07;;;;;;;33.17;7.73;;;;;;;-143.84;79.45;45071.91;5039085;28;20458;-80
2022/08/31 05:26:37;;;;;;;15.10;5.93;;;;;;;-143.84;79.22;45060.50;5041063;28;20524;-80
2022/08/31 05:29:06;;;;;;;25.03;6.27;;;;;;;-143.84;79.01;45024.31;5047296;28;20470;-80
2022/08/31 05:31:33;;;;;;;42.40;7.27;;;;;;;-143.84;78.76;45079.53;5052301;28;20511;-80
2022/08/31 05:34:01;;;;;;;26.77;7.10;;;;;;;-143.84;77.98;45096.66;5051962;28;20503;-80
2022/08/31 05:36:28;;;;;;;42.87;6.93;;;;;;;-143.84;75.70;45071.91;5052264;28;20488;-80
2022/08/31 05:38:57;;;;;;;30.10;7.17;;;;;;;-143.84;74.33;45052.88;5051841;28;20920;-80
2022/08/31 05:41:27;;;;;;;29.90;6.90;;;;;;;-143.84;73.44;45079.53;5052044;28;20442;-80
2022/08/31 05:43:54;;;;;;;40.37;6.83;;;;;;;-143.84;71.12;45077.63;5052002;28;20452;-80
2022/08/31 05:46:21;;;;;;;32.93;6.30;;;;;;;-143.84;69.77;45064.31;5051594;28;20450;-80
2022/08/31 05:48:48;;;;;;;41.77;7.00;;;;;;;-143.84;68.72;45064.31;5039719;28;20540;-80
2022/08/31 05:51:17;;;;;;;23.67;5.63;;;;;;;-143.84;65.43;45062.41;5032205;28;20549;-80
2022/08/31 05:53:45;;;;;;;37.03;7.23;;;;;;;-143.84;65.77;45064.31;5041144;28;20510;-80
2022/08/31 05:56:15;;;;;;;31.83;6.67;;;;;;;-143.84;65.64;45028.13;5033397;28;20516;-80
2022/08/31 05:58:45;;;;;;;37.43;6.17;;;;;;;-143.84;64.74;45050.97;5032297;28;20477;-80
2022/08/31 06:01:17;;;;;;;16.80;5.87;;;;;;;-143.84;64.55;45045.25;5032420;28;20446;-80
2022/08/31 06:03:45;;;;;;;23.97;6.00;;;;;;;-143.84;64.76;45066.22;5038253;28;20445;-80
2022/08/31 06:06:13;;;;;;;25.37;6.87;;;;;;;-143.84;66.56;45066.22;5043632;28;21024;-80
2022/08/31 06:08:42;;;;;;;28.83;7.57;;;;;;;-143.84;68.46;45043.34;5041042;28;20544;-80
2022/08/31 06:11:14;;;;;;;28.83;6.63;;;;;;;-143.84;69.12;45031.94;5035513;28;20451;-80
2022/08/31 06:13:41;;;;;;;36.73;7.43;;;;;;;-143.84;69.76;45087.16;5037378;28;20513;-81
2022/08/31 06:16:10;;;;;;;20.17;5.73;;;;;;;-143.84;70.85;45073.81;5042569;28;20514;-80
2022/08/31 06:18:39;;;;;;;9.97;5.20;;;;;;;-143.84;71.00;45030.03;5036535;28;20465;-80
2022/08/31 06:21:09;;;;;;;18.37;6.47;;;;;;;-143.84;71.62;45022.41;5040432;28;20447;-81
2022/08/31 06:23:37;;;;;;;25.53;6.13;;;;;;;-143.84;71.43;45041.44;5031995;28;20600;-80
2022/08/31 06:26:07;;;;;;;23.60;6.40;;;;;;;-143.84;71.20;45102.38;5032020;28;20446;-80
2022/08/31 06:28:35;;;;;;;14.87;5.53;;;;;;;-143.84;71.16;45035.75;5032892;28;20478;-81
2022/08/31 06:31:10;;;;;;;24.83;6.20;;;;;;;-143.84;70.51;45012.88;5032904;28;20443;-80
2022/08/31 06:33:40;;;;;;;20.97;6.33;;;;;;;-143.84;70.71;45030.03;5040258;28;20456;-81
2022/08/31 06:36:10;;;;;;;27.37;6.70;;;;;;;-143.84;71.19;45037.66;5030254;28;20455;-80
2022/08/31 06:38:39;;;;;;;31.03;7.23;;;;;;;-143.84;71.04;45026.22;5049190;28;21028;-81
2022/08/31 06:41:16;;;;;;;18.97;6.40;;;;;;;-143.84;71.79;45045.25;5056088;28;20453;-81
2022/08/31 06:43:44;;;;;;;19.93;6.30;;;;;;;-143.84;70.56;45064.31;5047707;28;20437;-80
2022/08/31 06:46:12;;;;;;;19.03;6.33;;;;;;;-143.84;69.96;45024.31;5048847;28;20449;-81
2022/08/31 06:48:41;;;;;;;30.80;6.23;;;;;;;-143.84;69.29;45047.16;5042804;28;20475;-80
2022/08/31 06:51:10;;;;;;;24.73;7.23;;;;;;;-143.84;68.77;45028.13;5039048;28;20549;-80
2022/08/31 06:53:39;;;;;;;27.33;7.10;;;;;;;-143.84;67.83;45014.78;5039998;28;20481;-80
2022/08/31 06:56:08;;;;;;;27.40;6.57;;;;;;;-143.84;68.53;45031.94;5055803;28;20436;-80
2022/08/31 06:58:36;;;;;;;24.73;7.03;;;;;;;-143.84;68.14;45037.66;5055769;28;20441;-80
2022/08/31 07:01:08;;;;;;;23.87;7.00;;;;;;;-143.84;66.97;45050.97;5055790;28;20499;-80
2022/08/31 07:03:36;;;;;;;27.67;7.00;;;;;;;-143.84;67.24;45028.13;5051104;28;20446;-81
2022/08/31 07:06:07;;;;;;;27.67;6.23;;;;;;;-143.84;67.59;45030.03;5048267;28;20438;-80
2022/08/31 07:08:36;;;;;;;25.80;6.03;;;;;;;-143.84;68.05;45050.97;5047271;28;20473;-80
2022/08/31 07:11:03;;;;;;;33.63;6.27;;;;;;;-143.84;66.75;45026.22;5041520;28;20516;-80
2022/08/31 07:13:31;;;;;;;25.90;6.23;;;;;;;-143.84;65.90;45047.16;5049449;28;20864;-80
2022/08/31 07:16:05;;;;;;;33.30;6.90;;;;;;;-143.84;65.53;45033.84;5037999;28;20431;-80
2022/08/31 07:18:33;;;;;;;22.33;6.37;;;;;;;-143.84;64.81;45030.03;5041633;28;20457;-80
2022/08/31 07:21:11;;;;;;;40.43;7.70;;;;;;;-143.84;64.74;45033.84;5040006;28;20511;-81
2022/08/31 07:23:39;;;;;;;23.90;7.33;;;;;;;-143.84;66.61;45049.06;5039858;28;20510;-81
2022/08/31 07:26:08;;;;;;;34.23;6.40;;;;;;;-143.84;65.66;45022.41;5038132;28;20437;-81
2022/08/31 07:28:37;;;;;;;29.70;6.70;;;;;;;-143.84;65.00;45056.69;5052196;28;20809;-81
2022/08/31 07:31:06;;;;;;;26.60;7.37;;;;;;;-143.84;64.30;45005.28;5029375;28;20451;-81
2022/08/31 07:33:37;;;;;;;20.80;6.93;;;;;;;-143.84;63.06;45026.22;5034676;28;20443;-80
2022/08/31 07:36:06;;;;;;;20.60;5.80;;;;;;;-143.84;62.83;45020.50;5034371;28;20443;-81
2022/08/31 07:44:04;;;;;;;25.47;6.83;;;;;;;-143.84;61.16;45012.88;5047016;28;20421;-81
2022/08/31 07:46:31;;;;;;;30.13;6.70;;;;;;;-143.84;61.19;45052.88;5035507;28;20430;-81
2022/08/31 07:48:59;;;;;;;15.17;5.27;;;;;;;-143.84;59.81;45031.94;5035183;28;20505;-81
2022/08/31 07:51:27;;;;;;;22.37;6.50;;;;;;;-143.84;59.04;45007.19;5034287;28;20443;-81
2022/08/31 07:53:56;;;;;;;28.13;5.93;;;;;;;-143.84;58.03;45005.28;5035271;28;20530;-80
2022/08/31 07:56:24;;;;;;;21.70;6.73;;;;;;;-143.84;58.01;44991.94;5027196;28;20523;-80
2022/08/31 07:58:52;;;;;;;23.70;6.20;;;;;;;-143.84;58.80;44991.94;5038728;28;20453;-80
2022/08/31 08:01:19;;;;;;;46.77;6.63;;;;;;;-143.84;58.78;45010.97;5043177;28;20443;-80
2022/08/31 08:03:46;;;;;;;17.33;6.07;;;;;;;-143.84;57.62;45022.41;5036845;28;20482;-80
2022/08/31 08:06:16;;;;;;;24.27;7.10;;;;;;;-143.84;57.90;45020.50;5035758;28;21029;-80
2022/08/31 08:08:43;;;;;;;26.43;7.73;;;;;;;-143.84;56.99;45007.19;5031048;28;20876;-80
2022/08/31 08:11:17;;;;;;;26.23;6.40;;;;;;;-143.84;57.05;45010.97;5038053;28;20527;-80
2022/08/31 08:13:45;;;;;;;27.40;6.20;;;;;;;-143.84;56.31;45005.28;5041780;28;20450;-80
2022/08/31 08:16:12;;;;;;;15.93;5.73;;;;;;;-143.84;55.04;45003.38;5045247;28;20441;-79
2022/08/31 08:18:40;;;;;;;33.50;5.97;;;;;;;-143.84;55.08;44982.41;5036358;28;20515;-80
2022/08/31 08:21:08;;;;;;;25.03;6.67;;;;;;;-143.84;54.38;45003.38;5040058;28;20453;-79
2022/08/31 08:23:35;;;;;;;13.77;5.60;;;;;;;-143.84;54.39;44990.03;5038150;28;20444;-80
2022/08/31 08:26:08;;;;;;;31.13;6.83;;;;;;;-143.84;53.90;45005.28;5040940;28;20940;-80
2022/08/31 08:28:37;;;;;;;18.97;6.13;;;;;;;-143.84;53.61;44999.56;5048221;28;20481;-80
2022/08/31 08:31:05;;;;;;;24.23;6.00;;;;;;;-143.84;53.53;45005.28;5053186;28;20951;-80
2022/08/31 08:33:34;;;;;;;22.83;6.37;;;;;;;-143.84;53.80;45007.19;5053688;28;20436;-80
2022/08/31 08:36:07;;;;;;;24.30;6.57;;;;;;;-143.84;52.91;44988.13;5053795;28;20808;-80
2022/08/31 08:38:37;;;;;;;17.90;6.10;;;;;;;-143.84;53.83;45003.38;5053030;28;20426;-79
2022/08/31 08:41:12;;;;;;;20.60;5.77;;;;;;;-143.84;53.55;44976.72;5048908;28;20876;-79
2022/08/31 08:43:44;;;;;;;28.23;6.17;;;;;;;-143.84;51.50;44995.75;5043378;28;20944;-79
2022/08/31 08:46:13;;;;;;;25.13;6.20;;;;;;;-143.84;52.58;44997.66;5032640;28;20461;-78
2022/08/31 08:48:44;;;;;;;33.53;5.70;;;;;;;-143.84;52.99;44999.56;5037850;28;20836;-78
2022/08/31 08:51:15;;;;;;;25.63;6.57;;;;;;;-143.84;52.84;44961.47;5041948;28;21097;-78
2022/08/31 08:53:45;;;;;;;18.53;5.57;;;;;;;-143.84;52.47;45005.28;5040415;28;20487;-78
2022/08/31 08:56:13;;;;;;;25.67;6.60;;;;;;;-143.84;53.15;44986.22;5036720;28;20948;-78
2022/08/31 08:58:42;;;;;;;18.63;5.60;;;;;;;-143.84;53.50;44976.72;5020996;28;20446;-78
2022/08/31 09:01:12;;;;;;;20.53;6.30;;;;;;;-143.84;51.64;44974.81;5038752;28;20451;-78
2022/08/31 09:03:55;;;;;;;21.13;6.30;;;;;;;-143.84;51.41;44984.31;5045361;28;20504;-78
2022/08/31 09:06:32;;;;;;;20.23;5.63;;;;;;;-143.84;53.80;44963.38;5038116;28;20459;-79
2022/08/31 09:09:22;;;;;;;25.03;5.70;;;;;;;-143.84;51.10;44969.09;5032353;28;20574;-78
2022/08/31 09:12:11;;;;;;;25.60;6.07;;;;;;;-143.84;50.11;44972.91;5017033;28;20513;-78
2022/08/31 09:14:57;;;;;;;27.57;6.43;;;;;;;-143.84;51.05;44953.88;5042350;28;20451;-74
2022/08/31 09:17:37;;;;;;;18.93;5.53;;;;;;;-143.84;49.31;44934.81;5033585;28;20551;-74
2022/08/31 09:20:06;;;;;;;27.47;6.33;;;;;;;-143.84;49.05;44963.38;5029313;28;20446;-73
2022/08/31 09:22:45;;;;;;;13.37;6.33;;;;;;;-143.84;47.98;44957.66;5030622;28;20439;-73
2022/08/31 09:25:15;;;;;;;20.57;5.60;;;;;;;-143.84;46.17;44917.69;5033950;28;20454;-73
2022/08/31 09:27:56;;;;;;;19.10;5.07;;;;;;;-143.84;45.92;44944.34;5042761;28;20458;-74
2022/08/31 09:30:41;;;;;;;24.47;4.73;;;;;;;-143.84;44.39;44950.06;5031831;28;20485;-74
2022/08/31 09:33:17;;;;;;;19.00;5.73;;;;;;;-143.84;46.65;44934.81;5041293;28;20455;-73
2022/08/31 09:35:45;;;;;;;16.20;5.13;;;;;;;-143.84;45.26;44927.19;5036784;28;20879;-73
2022/08/31 09:38:26;;;;;;;23.37;6.23;;;;;;;-143.84;44.51;44950.06;5039558;28;20508;-73
2022/08/31 09:40:53;;;;;;;21.87;6.27;;;;;;;-143.84;44.63;44917.69;5029775;28;20451;-73
2022/08/31 09:43:33;;;;;;;22.77;5.20;;;;;;;-143.84;43.35;44915.78;5032929;28;20539;-74
2022/08/31 09:46:06;;;;;;;17.63;4.73;;;;;;;-143.84;42.91;44911.97;5046721;28;20465;-74
2022/08/31 09:48:48;;;;;;;13.80;5.70;;;;;;;-143.84;42.07;44940.53;5047097;28;20458;-73
2022/08/31 09:51:22;;;;;;;18.20;4.87;;;;;;;-143.84;42.04;44904.34;5043949;28;20487;-73
2022/08/31 09:56:53;;;;;;;16.67;5.10;;;;;;;-143.84;39.58;44898.66;5038544;28;20438;-73
2022/08/31 09:59:36;;;;;;;22.30;4.80;;;;;;;-143.84;39.97;44889.13;5033147;28;20826;-74
2022/08/31 10:02:08;;;;;;;20.13;5.93;;;;;;;-143.84;40.02;44927.19;5036096;28;20454;-74
2022/08/31 10:04:49;;;;;;;22.47;5.70;;;;;;;-143.84;40.09;44898.66;5042116;28;20459;-74
2022/08/31 10:07:29;;;;;;;25.70;5.90;;;;;;;-143.84;39.39;44902.44;5036277;28;20533;-74
2022/08/31 10:10:02;;;;;;;19.53;4.80;;;;;;;-143.84;38.14;44887.22;5033251;28;20491;-74
2022/08/31 10:12:42;;;;;;;13.43;5.40;;;;;;;-143.84;37.36;44913.88;5036176;28;20449;-74
2022/08/31 10:15:15;;;;;;;14.50;4.60;;;;;;;-143.84;37.20;44932.91;5033326;28;20454;-73
2022/08/31 10:17:50;;;;;;;19.33;5.13;;;;;;;-143.84;37.61;44900.53;5036940;28;21114;-73
2022/08/31 10:20:21;;;;;;;11.20;5.17;;;;;;;-143.84;37.53;44896.75;5031842;28;20507;-73
2022/08/31 10:22:52;;;;;;;15.17;4.77;;;;;;;-143.84;36.31;44887.22;5028410;28;20447;-73
2022/08/31 10:25:29;;;;;;;15.73;5.07;;;;;;;-143.84;35.35;44906.25;5028307;28;20463;-73
2022/08/31 10:28:05;;;;;;;14.23;4.80;;;;;;;-143.84;36.01;44877.69;5036759;28;20822;-74
2022/08/31 10:30:41;;;;;;;19.27;5.17;;;;;;;-143.84;35.56;44902.44;5033737;28;20492;-73
2022/08/31 10:33:16;;;;;;;23.37;4.90;;;;;;;-143.84;35.58;44902.44;5030972;28;20445;-73
2022/08/31 10:35:51;;;;;;;18.97;4.60;;;;;;;-143.84;35.40;44870.09;5028425;28;20459;-73
2022/08/31 10:38:26;;;;;;;23.13;5.13;;;;;;;-143.84;35.93;44894.84;5024936;28;20446;-74
2022/08/31 10:41:06;;;;;;;19.73;4.90;;;;;;;-143.84;35.65;44862.47;5029290;28;20802;-73
2022/08/31 10:43:44;;;;;;;16.10;5.10;;;;;;;-143.84;34.53;44871.97;5041833;28;20441;-73
2022/08/31 10:46:12;;;;;;;21.97;6.03;;;;;;;-143.84;36.10;44860.56;5045554;28;20454;-74
2022/08/31 10:48:50;;;;;;;15.00;5.20;;;;;;;-143.84;36.42;44873.88;5039370;28;20972;-74
2022/08/31 10:51:22;;;;;;;19.50;5.10;;;;;;;-143.84;36.98;44871.97;5044759;28;20457;-74
2022/08/31 10:54:23;;;;;;;17.00;4.53;;;;;;;-143.84;37.33;44877.69;5033561;28;20518;-73
2022/08/31 10:57:03;;;;;;;20.27;5.20;;;;;;;-143.84;37.79;44910.06;5045559;28;21407;-73
2022/08/31 10:59:36;;;;;;;21.07;5.60;;;;;;;-143.84;38.28;44885.31;5042632;28;20457;-74
2022/08/31 11:02:27;;;;;;;14.20;5.07;;;;;;;-143.84;39.32;44879.59;5032294;28;20512;-73
2022/08/31 11:05:02;;;;;;;16.00;5.53;;;;;;;-143.84;40.02;44906.25;5041041;28;20464;-74
2022/08/31 11:07:44;;;;;;;15.27;5.20;;;;;;;-143.84;40.75;44891.03;5039282;28;20453;-74
2022/08/31 11:10:22;;;;;;;16.77;5.63;;;;;;;-143.84;41.47;44896.75;5043989;28;20490;-77
2022/08/31 11:12:56;;;;;;;17.87;6.20;;;;;;;-143.84;41.82;44894.84;5036000;28;20454;-78
2022/08/31 11:15:53;;;;;;;19.87;5.57;;;;;;;-143.84;42.39;44896.75;5029607;28;21328;-78
2022/08/31 11:19:10;;;;;;;15.57;5.90;;;;;;;-143.84;43.30;44908.16;5042375;28;20971;-78
2022/08/31 11:22:04;;;;;;;12.33;5.80;;;;;;;-143.84;44.15;44894.84;4965175;28;20987;-78
2022/08/31 11:24:59;;;;;;;12.07;4.93;;;;;;;-143.84;45.01;44908.16;5032587;28;20459;-78
2022/08/31 11:27:32;;;;;;;25.97;6.30;;;;;;;-143.84;46.01;44910.06;5041127;28;20846;-78
2022/08/31 11:30:03;;;;;;;22.53;5.63;;;;;;;-143.84;47.20;44892.94;5038568;28;21145;-78
2022/08/31 11:32:36;;;;;;;17.30;6.00;;;;;;;-143.84;47.03;44921.50;5037332;28;20952;-78
2022/08/31 11:35:09;;;;;;;22.03;5.17;;;;;;;-143.84;47.09;44915.78;5035159;28;20536;-78